• Join FlightAware (Why Join?)
  • Login
  • US Flag 
Trick or treat! (Boo!!) 
10:47PM EDT


 

Airport Tracker/Info


-or-


 

Live Flight TrackerFlight Track Log ✈ SKW2988 ✈ 02-May-2013 ✈ KPHX - KABQ

Flight Track Log - Related Links

Times and Time Zones

All times are in EDT time to prevent confusion due to time zone crossing. See the SKW2988 flight status page for this flight to view local times or setup timezone preferences in your user account.

Time Position Orientation Groundspeed Altitude Reporting Facility
EDT Latitude Longitude Course Direction KTS MPH feet Rate Location/Type
12:57AM 33.4333 -112.0000 90° East 150 173 1,800  Level Phoenix TRACON
12:58AM 33.4333 -111.9167 90° East 191 220 4,300 2,040 Climbing Phoenix TRACON
12:59AM 33.4378 -111.9050 65° Northeast 191 220 4,900 1,740 Climbing Albuquerque Center
01:00AM 33.4608 -111.8319 69° East 254 292 6,600 1,980 Climbing Albuquerque Center
01:01AM 33.5075 -111.7589 53° Northeast 277 319 8,900 2,220 Climbing Albuquerque Center
01:02AM 33.5425 -111.6711 64° Northeast 294 338 11,100 2,100 Climbing Albuquerque Center
01:03AM 33.5753 -111.5822 66° East 295 339 13,200 1,980 Climbing Albuquerque Center
01:04AM 33.6086 -111.4886 67° East 304 350 15,200 1,740 Climbing Albuquerque Center
01:05AM 33.6447 -111.3906 66° East 321 369 16,800 1,560 Climbing Albuquerque Center
01:06AM 33.6819 -111.2878 66° East 337 388 18,400 1,560 Climbing Albuquerque Center
01:07AM 33.7183 -111.1836 67° East 341 392 20,000 1,440 Climbing Albuquerque Center
01:08AM 33.7558 -111.0772 67° East 347 399 21,400 1,200 Climbing Albuquerque Center
01:09AM 33.7950 -110.9669 67° East 359 413 22,500 1,140 Climbing Albuquerque Center
01:10AM 33.8358 -110.8519 67° East 370 426 23,700 1,320 Climbing Albuquerque Center
01:11AM 33.8842 -110.7128 67° East 375 432 25,200 1,260 Climbing Albuquerque Center
01:12AM 33.9261 -110.5953 67° East 381 438 26,300 840 Climbing Albuquerque Center
01:13AM 33.9681 -110.4764 67° East 384 442 27,000 300 Climbing Albuquerque Center
01:14AM 34.0050 -110.3606 69° East 398 458 27,000  Level Albuquerque Center
01:15AM 34.0414 -110.2211 72° East 428 493 27,000  Level Albuquerque Center
01:16AM 34.0819 -110.0594 73° East 440 506 27,000  Level Albuquerque Center
01:17AM 34.1158 -109.9242 73° East 440 506 27,000  Level Albuquerque Center
01:18AM 34.1497 -109.7892 73° East 442 509 27,000  Level Albuquerque Center
01:19AM 34.1903 -109.6308 73° East 442 509 27,000  Level Albuquerque Center
01:20AM 34.2233 -109.4925 74° East 445 512 27,000  Level Albuquerque Center
01:21AM 34.2600 -109.3447 73° East 445 512 27,000  Level Albuquerque Center
01:22AM 34.2944 -109.2011 74° East 446 513 27,000  Level Albuquerque Center
01:23AM 34.3289 -109.0589 74° East 446 513 27,000  Level Albuquerque Center
01:24AM 34.3614 -108.9228 74° East 443 510 27,000  Level Albuquerque Center
01:25AM 34.4003 -108.7639 73° East 442 509 27,000  Level Albuquerque Center
01:26AM 34.4325 -108.6269 74° East 442 509 27,000  Level Albuquerque Center
01:27AM 34.4644 -108.4886 74° East 444 511 27,000  Level Albuquerque Center
01:28AM 34.4992 -108.3442 74° East 442 509 27,000  Level Albuquerque Center
01:29AM 34.5322 -108.2022 74° East 440 506 27,000  Level Albuquerque Center
01:30AM 34.5647 -108.0614 74° East 437 503 27,000 -600 Level Albuquerque Center
01:31AM 34.5983 -107.9194 74° East 439 505 25,900 -1,560 Descending Albuquerque Center
01:32AM 34.6333 -107.7808 73° East 432 497 23,900 -2,040 Descending Albuquerque Center
01:33AM 34.6861 -107.6636 61° Northeast 404 465 21,900 -1,920 Descending Albuquerque Center
01:34AM 34.7344 -107.5489 63° Northeast 388 447 20,000 -2,040 Descending Albuquerque Center
01:35AM 34.7689 -107.4636 64° Northeast 364 419 18,600 -1,800 Descending Albuquerque Center
01:35AM 34.7814 -107.4408 56° Northeast 370 426 18,200 -1,140 Descending Albuquerque Center
01:36AM 34.8103 -107.3683 64° Northeast 336 387 17,600 -1,140 Descending Albuquerque Center
01:36AM 34.8233 -107.3417 59° Northeast 343 395 17,100 -1,800 Descending Albuquerque Center
01:37AM 34.8517 -107.2728 63° Northeast 313 360 15,800 -2,220 Descending Albuquerque Center
01:37AM 34.8703 -107.2283 63° Northeast 318 366 14,900 -1,800 Descending Albuquerque Center
01:38AM 34.8894 -107.1806 64° Northeast 306 352 14,000 -1,920 Descending Albuquerque Center
01:38AM 34.9083 -107.1361 63° Northeast 310 357 13,000 -1,680 Descending Albuquerque Center
01:39AM 34.9272 -107.0908 63° Northeast 297 342 12,300 -1,500 Descending Albuquerque Center
01:39AM 34.9456 -107.0497 61° Northeast 299 344 11,500 -1,500 Descending Albuquerque Center
01:40AM 34.9642 -107.0064 62° Northeast 284 327 10,800 -1,500 Descending Albuquerque Center
01:40AM 34.9811 -106.9656 63° Northeast 290 334 10,000 -1,500 Descending Albuquerque Center
01:41AM 35.0006 -106.9222 61° Northeast 277 319 9,300 -1,320 Descending Albuquerque Center
01:41AM 35.0167 -106.8831 63° Northeast 283 326 8,700 -1,140 Descending Albuquerque Center
01:42AM 35.0303 -106.8342 71° East 252 290 8,200 -720 Descending Albuquerque Center
01:43AM 35.0417 -106.7639 79° East 200 230 7,600 -540 Descending Albuquerque Center
01:43AM 35.0442 -106.7406 83° East 224 258 7,400 -840 Descending Albuquerque Center
01:44AM 35.0447 -106.7086 89° East 146 168 6,800 -900 Descending Albuquerque Center
01:44AM 35.0444 -106.6900 91° East 176 203 6,500 -720 Descending Albuquerque Center
01:45AM 35.0431 -106.6625 94° East 122 140 6,100 -600 Descending Albuquerque Center
01:45AM 35.0442 -106.6475 85° East 149 171 5,900 -480 Descending Albuquerque Center
01:46AM 35.0442 -106.6025 90° East 136 157 5,400 -540 Descending Albuquerque Center
01:48AM 35.0333 -106.6000 North  Level FlightAware Approximate